sensor_id;sensor_type;location;lat;lon;timestamp;P1;durP1;ratioP1;P2;durP2;ratioP2
54157;SDS011;40065;49.894;10.358;2023-04-06T00:01:51;7.10;;;4.30;;
54157;SDS011;40065;49.894;10.358;2023-04-06T00:06:53;4.85;;;3.45;;
54157;SDS011;40065;49.894;10.358;2023-04-06T00:11:55;5.65;;;3.28;;
54157;SDS011;40065;49.894;10.358;2023-04-06T00:16:57;7.55;;;3.42;;
54157;SDS011;40065;49.894;10.358;2023-04-06T00:21:59;4.32;;;2.90;;
54157;SDS011;40065;49.894;10.358;2023-04-06T00:27:01;5.32;;;3.08;;
54157;SDS011;40065;49.894;10.358;2023-04-06T00:32:03;4.97;;;3.05;;
54157;SDS011;40065;49.894;10.358;2023-04-06T00:37:05;4.32;;;2.88;;
54157;SDS011;40065;49.894;10.358;2023-04-06T00:42:10;6.30;;;3.67;;
54157;SDS011;40065;49.894;10.358;2023-04-06T00:47:16;5.40;;;2.90;;
54157;SDS011;40065;49.894;10.358;2023-04-06T00:52:18;6.65;;;3.33;;
54157;SDS011;40065;49.894;10.358;2023-04-06T00:57:21;4.40;;;2.20;;
54157;SDS011;40065;49.894;10.358;2023-04-06T01:02:28;4.97;;;2.72;;
54157;SDS011;40065;49.894;10.358;2023-04-06T01:07:31;4.28;;;2.60;;
54157;SDS011;40065;49.894;10.358;2023-04-06T01:12:44;5.05;;;2.63;;
54157;SDS011;40065;49.894;10.358;2023-04-06T01:17:55;4.20;;;2.47;;
54157;SDS011;40065;49.894;10.358;2023-04-06T01:22:57;5.85;;;3.35;;
54157;SDS011;40065;49.894;10.358;2023-04-06T01:27:59;4.53;;;2.67;;
54157;SDS011;40065;49.894;10.358;2023-04-06T01:33:21;4.90;;;2.40;;
54157;SDS011;40065;49.894;10.358;2023-04-06T01:38:36;4.70;;;3.33;;
54157;SDS011;40065;49.894;10.358;2023-04-06T01:43:38;5.85;;;3.40;;
54157;SDS011;40065;49.894;10.358;2023-04-06T01:48:43;7.70;;;3.60;;
54157;SDS011;40065;49.894;10.358;2023-04-06T01:53:52;7.95;;;3.88;;
54157;SDS011;40065;49.894;10.358;2023-04-06T01:58:59;7.32;;;4.60;;
54157;SDS011;40065;49.894;10.358;2023-04-06T02:04:07;7.85;;;3.33;;
54157;SDS011;40065;49.894;10.358;2023-04-06T02:09:10;7.03;;;3.50;;
54157;SDS011;40065;49.894;10.358;2023-04-06T02:14:11;6.70;;;3.13;;
54157;SDS011;40065;49.894;10.358;2023-04-06T02:19:19;5.88;;;3.20;;
54157;SDS011;40065;49.894;10.358;2023-04-06T02:24:22;8.02;;;4.38;;
54157;SDS011;40065;49.894;10.358;2023-04-06T02:29:24;7.20;;;4.10;;
54157;SDS011;40065;49.894;10.358;2023-04-06T02:34:26;6.40;;;3.85;;
54157;SDS011;40065;49.894;10.358;2023-04-06T02:39:28;6.25;;;3.30;;
54157;SDS011;40065;49.894;10.358;2023-04-06T02:44:30;5.78;;;3.72;;
54157;SDS011;40065;49.894;10.358;2023-04-06T02:49:31;5.40;;;2.97;;
54157;SDS011;40065;49.894;10.358;2023-04-06T02:54:33;4.65;;;2.85;;
54157;SDS011;40065;49.894;10.358;2023-04-06T02:59:37;6.38;;;3.65;;
54157;SDS011;40065;49.894;10.358;2023-04-06T03:04:58;7.25;;;4.15;;
54157;SDS011;40065;49.894;10.358;2023-04-06T03:10:07;4.57;;;2.50;;
54157;SDS011;40065;49.894;10.358;2023-04-06T03:15:11;6.25;;;3.15;;
54157;SDS011;40065;49.894;10.358;2023-04-06T03:20:17;6.07;;;2.70;;
54157;SDS011;40065;49.894;10.358;2023-04-06T03:25:19;5.90;;;3.13;;
54157;SDS011;40065;49.894;10.358;2023-04-06T03:30:21;6.00;;;3.05;;
54157;SDS011;40065;49.894;10.358;2023-04-06T03:35:23;7.13;;;4.43;;
54157;SDS011;40065;49.894;10.358;2023-04-06T03:40:25;5.72;;;3.03;;
54157;SDS011;40065;49.894;10.358;2023-04-06T03:45:27;6.20;;;3.17;;
54157;SDS011;40065;49.894;10.358;2023-04-06T03:50:29;8.48;;;4.60;;
54157;SDS011;40065;49.894;10.358;2023-04-06T03:55:31;6.20;;;3.20;;
54157;SDS011;40065;49.894;10.358;2023-04-06T04:00:32;5.78;;;2.97;;
54157;SDS011;40065;49.894;10.358;2023-04-06T04:05:34;6.43;;;3.60;;
54157;SDS011;40065;49.894;10.358;2023-04-06T04:10:36;10.18;;;6.15;;
54157;SDS011;40065;49.894;10.358;2023-04-06T04:15:38;8.27;;;5.25;;
54157;SDS011;40065;49.894;10.358;2023-04-06T04:20:39;6.10;;;3.92;;
54157;SDS011;40065;49.894;10.358;2023-04-06T04:25:43;6.00;;;3.38;;
54157;SDS011;40065;49.894;10.358;2023-04-06T04:30:45;6.28;;;4.57;;
54157;SDS011;40065;49.894;10.358;2023-04-06T04:35:48;5.32;;;3.45;;
54157;SDS011;40065;49.894;10.358;2023-04-06T04:40:53;5.68;;;3.25;;
54157;SDS011;40065;49.894;10.358;2023-04-06T04:45:56;7.47;;;4.15;;
54157;SDS011;40065;49.894;10.358;2023-04-06T04:51:10;13.10;;;5.47;;
54157;SDS011;40065;49.894;10.358;2023-04-06T04:56:29;10.77;;;5.18;;
54157;SDS011;40065;49.894;10.358;2023-04-06T05:01:40;10.45;;;5.57;;
54157;SDS011;40065;49.894;10.358;2023-04-06T05:07:07;7.68;;;3.80;;
54157;SDS011;40065;49.894;10.358;2023-04-06T05:12:13;7.28;;;3.80;;
54157;SDS011;40065;49.894;10.358;2023-04-06T05:17:35;9.07;;;4.40;;
54157;SDS011;40065;49.894;10.358;2023-04-06T05:22:37;6.68;;;4.07;;
54157;SDS011;40065;49.894;10.358;2023-04-06T05:27:42;7.88;;;4.53;;
54157;SDS011;40065;49.894;10.358;2023-04-06T05:32:59;8.52;;;5.13;;
54157;SDS011;40065;49.894;10.358;2023-04-06T05:38:08;7.40;;;3.80;;
54157;SDS011;40065;49.894;10.358;2023-04-06T05:43:11;13.32;;;6.32;;
54157;SDS011;40065;49.894;10.358;2023-04-06T05:48:17;11.60;;;5.78;;
54157;SDS011;40065;49.894;10.358;2023-04-06T05:53:19;12.30;;;6.88;;
54157;SDS011;40065;49.894;10.358;2023-04-06T05:58:29;11.63;;;7.47;;
54157;SDS011;40065;49.894;10.358;2023-04-06T06:03:32;15.27;;;5.97;;
54157;SDS011;40065;49.894;10.358;2023-04-06T06:08:34;9.32;;;5.93;;
54157;SDS011;40065;49.894;10.358;2023-04-06T06:13:40;6.95;;;4.45;;
54157;SDS011;40065;49.894;10.358;2023-04-06T06:18:43;8.82;;;5.82;;
54157;SDS011;40065;49.894;10.358;2023-04-06T06:23:45;10.73;;;6.55;;
54157;SDS011;40065;49.894;10.358;2023-04-06T06:28:52;15.32;;;7.93;;
54157;SDS011;40065;49.894;10.358;2023-04-06T06:33:54;10.27;;;5.18;;
54157;SDS011;40065;49.894;10.358;2023-04-06T06:38:56;7.70;;;4.75;;
54157;SDS011;40065;49.894;10.358;2023-04-06T06:43:59;9.32;;;4.32;;
54157;SDS011;40065;49.894;10.358;2023-04-06T06:49:02;7.28;;;4.30;;
54157;SDS011;40065;49.894;10.358;2023-04-06T06:54:04;7.13;;;4.95;;
54157;SDS011;40065;49.894;10.358;2023-04-06T06:59:07;9.15;;;4.00;;
54157;SDS011;40065;49.894;10.358;2023-04-06T07:04:09;7.63;;;5.10;;
54157;SDS011;40065;49.894;10.358;2023-04-06T07:09:11;7.13;;;4.10;;
54157;SDS011;40065;49.894;10.358;2023-04-06T07:14:15;8.43;;;5.05;;
54157;SDS011;40065;49.894;10.358;2023-04-06T07:19:17;8.32;;;4.32;;
54157;SDS011;40065;49.894;10.358;2023-04-06T07:24:19;5.63;;;3.95;;
54157;SDS011;40065;49.894;10.358;2023-04-06T07:29:21;7.32;;;4.90;;
54157;SDS011;40065;49.894;10.358;2023-04-06T07:34:24;10.10;;;5.47;;
54157;SDS011;40065;49.894;10.358;2023-04-06T07:39:26;9.13;;;5.38;;
54157;SDS011;40065;49.894;10.358;2023-04-06T07:49:32;6.47;;;4.50;;
54157;SDS011;40065;49.894;10.358;2023-04-06T07:54:36;9.30;;;5.22;;
54157;SDS011;40065;49.894;10.358;2023-04-06T07:59:37;8.38;;;5.20;;
54157;SDS011;40065;49.894;10.358;2023-04-06T08:04:39;6.75;;;4.13;;
54157;SDS011;40065;49.894;10.358;2023-04-06T08:09:44;8.80;;;5.47;;
54157;SDS011;40065;49.894;10.358;2023-04-06T08:14:46;8.30;;;5.15;;
54157;SDS011;40065;49.894;10.358;2023-04-06T08:19:48;6.95;;;4.85;;
54157;SDS011;40065;49.894;10.358;2023-04-06T08:24:50;9.13;;;4.85;;
54157;SDS011;40065;49.894;10.358;2023-04-06T08:29:52;7.47;;;5.65;;
54157;SDS011;40065;49.894;10.358;2023-04-06T08:34:54;9.02;;;6.20;;
54157;SDS011;40065;49.894;10.358;2023-04-06T08:39:57;6.50;;;4.68;;
54157;SDS011;40065;49.894;10.358;2023-04-06T08:44:58;7.32;;;5.18;;
54157;SDS011;40065;49.894;10.358;2023-04-06T08:50:02;7.13;;;5.70;;
54157;SDS011;40065;49.894;10.358;2023-04-06T08:55:05;6.53;;;4.97;;
54157;SDS011;40065;49.894;10.358;2023-04-06T09:00:09;10.37;;;6.27;;
54157;SDS011;40065;49.894;10.358;2023-04-06T09:05:12;10.27;;;6.05;;
54157;SDS011;40065;49.894;10.358;2023-04-06T09:10:14;11.02;;;6.07;;
54157;SDS011;40065;49.894;10.358;2023-04-06T09:15:19;8.90;;;6.22;;
54157;SDS011;40065;49.894;10.358;2023-04-06T09:20:25;7.97;;;5.60;;
54157;SDS011;40065;49.894;10.358;2023-04-06T09:25:29;7.85;;;5.78;;
54157;SDS011;40065;49.894;10.358;2023-04-06T09:30:32;7.53;;;6.03;;
54157;SDS011;40065;49.894;10.358;2023-04-06T09:35:34;8.73;;;5.10;;
54157;SDS011;40065;49.894;10.358;2023-04-06T09:40:36;10.05;;;6.80;;
54157;SDS011;40065;49.894;10.358;2023-04-06T09:46:00;10.63;;;7.47;;
54157;SDS011;40065;49.894;10.358;2023-04-06T09:51:04;11.20;;;6.97;;
54157;SDS011;40065;49.894;10.358;2023-04-06T09:56:09;8.95;;;6.60;;
54157;SDS011;40065;49.894;10.358;2023-04-06T10:01:17;9.07;;;6.82;;
54157;SDS011;40065;49.894;10.358;2023-04-06T10:06:22;11.10;;;6.65;;
54157;SDS011;40065;49.894;10.358;2023-04-06T10:11:28;8.15;;;6.15;;
54157;SDS011;40065;49.894;10.358;2023-04-06T10:16:30;12.63;;;8.25;;
54157;SDS011;40065;49.894;10.358;2023-04-06T10:21:32;13.35;;;7.80;;
54157;SDS011;40065;49.894;10.358;2023-04-06T10:26:36;11.85;;;7.63;;
54157;SDS011;40065;49.894;10.358;2023-04-06T10:31:39;10.20;;;7.20;;
54157;SDS011;40065;49.894;10.358;2023-04-06T10:36:44;12.73;;;8.32;;
54157;SDS011;40065;49.894;10.358;2023-04-06T10:41:46;11.35;;;7.47;;
54157;SDS011;40065;49.894;10.358;2023-04-06T10:46:53;9.80;;;7.13;;
54157;SDS011;40065;49.894;10.358;2023-04-06T10:51:57;12.68;;;7.85;;
54157;SDS011;40065;49.894;10.358;2023-04-06T10:56:59;11.60;;;8.55;;
54157;SDS011;40065;49.894;10.358;2023-04-06T11:02:02;13.60;;;8.32;;
54157;SDS011;40065;49.894;10.358;2023-04-06T11:07:03;14.27;;;8.98;;
54157;SDS011;40065;49.894;10.358;2023-04-06T11:12:05;11.57;;;8.40;;
54157;SDS011;40065;49.894;10.358;2023-04-06T11:17:07;8.60;;;6.80;;
54157;SDS011;40065;49.894;10.358;2023-04-06T11:22:10;8.75;;;6.53;;
54157;SDS011;40065;49.894;10.358;2023-04-06T11:27:11;13.70;;;8.60;;
54157;SDS011;40065;49.894;10.358;2023-04-06T11:32:20;13.63;;;8.07;;
54157;SDS011;40065;49.894;10.358;2023-04-06T11:37:25;10.10;;;7.65;;
54157;SDS011;40065;49.894;10.358;2023-04-06T11:42:29;10.98;;;7.38;;
54157;SDS011;40065;49.894;10.358;2023-04-06T11:47:34;10.30;;;7.57;;
54157;SDS011;40065;49.894;10.358;2023-04-06T11:52:38;13.55;;;8.80;;
54157;SDS011;40065;49.894;10.358;2023-04-06T11:57:41;11.82;;;7.57;;
54157;SDS011;40065;49.894;10.358;2023-04-06T12:02:47;10.05;;;6.10;;
54157;SDS011;40065;49.894;10.358;2023-04-06T12:07:49;9.05;;;6.45;;
54157;SDS011;40065;49.894;10.358;2023-04-06T12:12:51;12.73;;;8.55;;
54157;SDS011;40065;49.894;10.358;2023-04-06T12:17:53;12.60;;;8.10;;
54157;SDS011;40065;49.894;10.358;2023-04-06T12:22:55;11.93;;;7.90;;
54157;SDS011;40065;49.894;10.358;2023-04-06T12:27:56;11.75;;;8.30;;
54157;SDS011;40065;49.894;10.358;2023-04-06T12:32:59;14.18;;;8.85;;
54157;SDS011;40065;49.894;10.358;2023-04-06T12:38:01;9.77;;;7.30;;
54157;SDS011;40065;49.894;10.358;2023-04-06T12:43:03;13.68;;;7.65;;
54157;SDS011;40065;49.894;10.358;2023-04-06T12:48:05;10.57;;;7.18;;
54157;SDS011;40065;49.894;10.358;2023-04-06T12:53:07;14.40;;;8.70;;
54157;SDS011;40065;49.894;10.358;2023-04-06T12:58:09;14.10;;;7.70;;
54157;SDS011;40065;49.894;10.358;2023-04-06T13:03:11;9.85;;;6.90;;
54157;SDS011;40065;49.894;10.358;2023-04-06T13:08:14;12.57;;;7.45;;
54157;SDS011;40065;49.894;10.358;2023-04-06T13:13:16;11.40;;;7.40;;
54157;SDS011;40065;49.894;10.358;2023-04-06T13:18:37;12.98;;;8.20;;
54157;SDS011;40065;49.894;10.358;2023-04-06T13:23:40;13.10;;;7.97;;
54157;SDS011;40065;49.894;10.358;2023-04-06T13:28:42;12.50;;;7.85;;
54157;SDS011;40065;49.894;10.358;2023-04-06T13:33:44;8.82;;;6.00;;
54157;SDS011;40065;49.894;10.358;2023-04-06T13:38:46;8.63;;;5.53;;
54157;SDS011;40065;49.894;10.358;2023-04-06T13:43:48;10.90;;;7.43;;
54157;SDS011;40065;49.894;10.358;2023-04-06T13:48:50;13.52;;;7.32;;
54157;SDS011;40065;49.894;10.358;2023-04-06T13:53:52;7.63;;;5.43;;
54157;SDS011;40065;49.894;10.358;2023-04-06T13:58:56;9.90;;;6.57;;
54157;SDS011;40065;49.894;10.358;2023-04-06T14:03:58;10.00;;;6.70;;
54157;SDS011;40065;49.894;10.358;2023-04-06T14:09:00;8.85;;;5.50;;
54157;SDS011;40065;49.894;10.358;2023-04-06T14:14:02;8.98;;;6.45;;
54157;SDS011;40065;49.894;10.358;2023-04-06T14:19:04;11.15;;;7.40;;
54157;SDS011;40065;49.894;10.358;2023-04-06T14:24:08;10.23;;;6.90;;
54157;SDS011;40065;49.894;10.358;2023-04-06T14:29:11;8.98;;;6.53;;
54157;SDS011;40065;49.894;10.358;2023-04-06T14:34:13;14.73;;;6.30;;
54157;SDS011;40065;49.894;10.358;2023-04-06T14:39:15;10.32;;;6.13;;
54157;SDS011;40065;49.894;10.358;2023-04-06T14:44:17;8.68;;;4.75;;
54157;SDS011;40065;49.894;10.358;2023-04-06T14:49:18;8.43;;;5.10;;
54157;SDS011;40065;49.894;10.358;2023-04-06T14:54:20;11.40;;;5.72;;
54157;SDS011;40065;49.894;10.358;2023-04-06T14:59:22;9.50;;;6.03;;
54157;SDS011;40065;49.894;10.358;2023-04-06T15:04:24;9.52;;;6.10;;
54157;SDS011;40065;49.894;10.358;2023-04-06T15:09:26;8.38;;;6.60;;
54157;SDS011;40065;49.894;10.358;2023-04-06T15:14:28;11.68;;;6.72;;
54157;SDS011;40065;49.894;10.358;2023-04-06T15:19:29;8.63;;;6.50;;
54157;SDS011;40065;49.894;10.358;2023-04-06T15:24:31;9.80;;;6.00;;
54157;SDS011;40065;49.894;10.358;2023-04-06T15:29:33;10.10;;;6.60;;
54157;SDS011;40065;49.894;10.358;2023-04-06T15:34:35;8.55;;;5.50;;
54157;SDS011;40065;49.894;10.358;2023-04-06T15:39:36;10.43;;;6.95;;
54157;SDS011;40065;49.894;10.358;2023-04-06T15:44:38;7.93;;;5.53;;
54157;SDS011;40065;49.894;10.358;2023-04-06T15:49:40;8.10;;;5.95;;
54157;SDS011;40065;49.894;10.358;2023-04-06T15:54:41;10.27;;;6.70;;
54157;SDS011;40065;49.894;10.358;2023-04-06T15:59:43;9.82;;;6.82;;
54157;SDS011;40065;49.894;10.358;2023-04-06T16:04:45;7.57;;;5.32;;
54157;SDS011;40065;49.894;10.358;2023-04-06T16:09:47;9.88;;;6.43;;
54157;SDS011;40065;49.894;10.358;2023-04-06T16:14:50;8.95;;;6.22;;
54157;SDS011;40065;49.894;10.358;2023-04-06T16:19:52;9.90;;;6.10;;
54157;SDS011;40065;49.894;10.358;2023-04-06T16:24:54;13.93;;;6.55;;
54157;SDS011;40065;49.894;10.358;2023-04-06T16:29:55;9.18;;;6.07;;
54157;SDS011;40065;49.894;10.358;2023-04-06T16:34:57;7.97;;;5.72;;
54157;SDS011;40065;49.894;10.358;2023-04-06T16:39:59;10.20;;;6.22;;
54157;SDS011;40065;49.894;10.358;2023-04-06T16:45:01;8.68;;;5.57;;
54157;SDS011;40065;49.894;10.358;2023-04-06T16:50:04;10.60;;;6.32;;
54157;SDS011;40065;49.894;10.358;2023-04-06T16:55:06;7.63;;;4.55;;
54157;SDS011;40065;49.894;10.358;2023-04-06T17:00:10;8.20;;;4.73;;
54157;SDS011;40065;49.894;10.358;2023-04-06T17:05:12;7.03;;;4.60;;
54157;SDS011;40065;49.894;10.358;2023-04-06T17:10:14;7.80;;;4.97;;
54157;SDS011;40065;49.894;10.358;2023-04-06T17:15:19;9.15;;;5.97;;
54157;SDS011;40065;49.894;10.358;2023-04-06T17:20:21;10.80;;;5.93;;
54157;SDS011;40065;49.894;10.358;2023-04-06T17:25:23;8.88;;;5.25;;
54157;SDS011;40065;49.894;10.358;2023-04-06T17:30:24;7.30;;;4.80;;
54157;SDS011;40065;49.894;10.358;2023-04-06T17:35:26;8.52;;;4.82;;
54157;SDS011;40065;49.894;10.358;2023-04-06T17:40:28;9.70;;;5.38;;
54157;SDS011;40065;49.894;10.358;2023-04-06T17:45:30;11.05;;;5.03;;
54157;SDS011;40065;49.894;10.358;2023-04-06T17:50:32;9.05;;;5.68;;
54157;SDS011;40065;49.894;10.358;2023-04-06T17:55:37;7.25;;;4.28;;
54157;SDS011;40065;49.894;10.358;2023-04-06T18:00:38;6.38;;;4.50;;
54157;SDS011;40065;49.894;10.358;2023-04-06T18:05:41;8.75;;;5.40;;
54157;SDS011;40065;49.894;10.358;2023-04-06T18:10:42;9.00;;;5.32;;
54157;SDS011;40065;49.894;10.358;2023-04-06T18:15:46;7.88;;;4.93;;
54157;SDS011;40065;49.894;10.358;2023-04-06T18:20:48;10.55;;;5.53;;
54157;SDS011;40065;49.894;10.358;2023-04-06T18:25:49;8.85;;;5.00;;
54157;SDS011;40065;49.894;10.358;2023-04-06T18:30:51;12.48;;;6.32;;
54157;SDS011;40065;49.894;10.358;2023-04-06T18:35:53;10.50;;;5.60;;
54157;SDS011;40065;49.894;10.358;2023-04-06T18:40:56;9.30;;;5.63;;
54157;SDS011;40065;49.894;10.358;2023-04-06T18:45:59;11.65;;;6.63;;
54157;SDS011;40065;49.894;10.358;2023-04-06T18:51:01;9.27;;;5.38;;
54157;SDS011;40065;49.894;10.358;2023-04-06T18:56:11;8.63;;;5.40;;
54157;SDS011;40065;49.894;10.358;2023-04-06T19:01:19;9.05;;;5.07;;
54157;SDS011;40065;49.894;10.358;2023-04-06T19:06:24;9.45;;;5.60;;
54157;SDS011;40065;49.894;10.358;2023-04-06T19:11:27;9.07;;;5.70;;
54157;SDS011;40065;49.894;10.358;2023-04-06T19:16:29;8.00;;;5.07;;
54157;SDS011;40065;49.894;10.358;2023-04-06T19:21:31;11.85;;;6.25;;
54157;SDS011;40065;49.894;10.358;2023-04-06T19:26:32;12.43;;;6.72;;
54157;SDS011;40065;49.894;10.358;2023-04-06T19:31:34;9.07;;;5.80;;
54157;SDS011;40065;49.894;10.358;2023-04-06T19:36:36;13.07;;;6.90;;
54157;SDS011;40065;49.894;10.358;2023-04-06T19:41:38;13.18;;;6.35;;
54157;SDS011;40065;49.894;10.358;2023-04-06T19:46:40;10.35;;;6.28;;
54157;SDS011;40065;49.894;10.358;2023-04-06T19:51:43;10.10;;;5.53;;
54157;SDS011;40065;49.894;10.358;2023-04-06T19:56:44;9.88;;;5.60;;
54157;SDS011;40065;49.894;10.358;2023-04-06T20:01:48;9.43;;;5.28;;
54157;SDS011;40065;49.894;10.358;2023-04-06T20:06:50;10.43;;;5.90;;
54157;SDS011;40065;49.894;10.358;2023-04-06T20:11:52;11.68;;;5.70;;
54157;SDS011;40065;49.894;10.358;2023-04-06T20:16:54;9.77;;;6.50;;
54157;SDS011;40065;49.894;10.358;2023-04-06T20:21:56;10.23;;;5.60;;
54157;SDS011;40065;49.894;10.358;2023-04-06T20:26:59;10.00;;;5.72;;
54157;SDS011;40065;49.894;10.358;2023-04-06T20:32:01;7.78;;;4.97;;
54157;SDS011;40065;49.894;10.358;2023-04-06T20:37:03;8.43;;;5.22;;
54157;SDS011;40065;49.894;10.358;2023-04-06T20:42:06;10.32;;;5.70;;
54157;SDS011;40065;49.894;10.358;2023-04-06T20:52:12;12.20;;;5.82;;
54157;SDS011;40065;49.894;10.358;2023-04-06T20:57:14;12.00;;;6.30;;
54157;SDS011;40065;49.894;10.358;2023-04-06T21:02:16;11.52;;;6.22;;
54157;SDS011;40065;49.894;10.358;2023-04-06T21:07:19;9.15;;;5.20;;
54157;SDS011;40065;49.894;10.358;2023-04-06T21:12:20;9.27;;;5.25;;
54157;SDS011;40065;49.894;10.358;2023-04-06T21:17:22;11.10;;;5.82;;
54157;SDS011;40065;49.894;10.358;2023-04-06T21:22:24;10.02;;;5.72;;
54157;SDS011;40065;49.894;10.358;2023-04-06T21:27:26;8.57;;;4.80;;
54157;SDS011;40065;49.894;10.358;2023-04-06T21:32:28;8.02;;;4.38;;
54157;SDS011;40065;49.894;10.358;2023-04-06T21:37:29;10.63;;;5.75;;
54157;SDS011;40065;49.894;10.358;2023-04-06T21:42:31;11.05;;;6.55;;
54157;SDS011;40065;49.894;10.358;2023-04-06T21:47:33;11.88;;;6.40;;
54157;SDS011;40065;49.894;10.358;2023-04-06T21:52:35;12.88;;;6.30;;
54157;SDS011;40065;49.894;10.358;2023-04-06T21:57:37;9.13;;;5.28;;
54157;SDS011;40065;49.894;10.358;2023-04-06T22:02:39;11.90;;;5.90;;
54157;SDS011;40065;49.894;10.358;2023-04-06T22:07:43;13.05;;;8.25;;
54157;SDS011;40065;49.894;10.358;2023-04-06T22:12:47;17.67;;;8.77;;
54157;SDS011;40065;49.894;10.358;2023-04-06T22:17:50;13.70;;;8.13;;
54157;SDS011;40065;49.894;10.358;2023-04-06T22:22:52;16.23;;;8.63;;
54157;SDS011;40065;49.894;10.358;2023-04-06T22:27:54;16.13;;;8.07;;
54157;SDS011;40065;49.894;10.358;2023-04-06T22:32:55;14.50;;;8.70;;
54157;SDS011;40065;49.894;10.358;2023-04-06T22:37:57;16.67;;;8.85;;
54157;SDS011;40065;49.894;10.358;2023-04-06T22:43:00;16.73;;;9.02;;
54157;SDS011;40065;49.894;10.358;2023-04-06T22:48:02;12.70;;;6.43;;
54157;SDS011;40065;49.894;10.358;2023-04-06T22:53:04;13.70;;;7.25;;
54157;SDS011;40065;49.894;10.358;2023-04-06T22:58:06;8.55;;;5.47;;
54157;SDS011;40065;49.894;10.358;2023-04-06T23:03:08;10.80;;;5.53;;
54157;SDS011;40065;49.894;10.358;2023-04-06T23:08:10;10.52;;;5.35;;
54157;SDS011;40065;49.894;10.358;2023-04-06T23:13:12;12.45;;;7.25;;
54157;SDS011;40065;49.894;10.358;2023-04-06T23:18:14;15.68;;;8.88;;
54157;SDS011;40065;49.894;10.358;2023-04-06T23:23:16;12.10;;;7.25;;
54157;SDS011;40065;49.894;10.358;2023-04-06T23:28:18;12.27;;;6.18;;
54157;SDS011;40065;49.894;10.358;2023-04-06T23:33:20;11.07;;;6.50;;
54157;SDS011;40065;49.894;10.358;2023-04-06T23:38:21;9.38;;;5.63;;
54157;SDS011;40065;49.894;10.358;2023-04-06T23:43:23;11.10;;;6.50;;
54157;SDS011;40065;49.894;10.358;2023-04-06T23:48:25;10.10;;;5.70;;
54157;SDS011;40065;49.894;10.358;2023-04-06T23:53:27;11.23;;;6.35;;
54157;SDS011;40065;49.894;10.358;2023-04-06T23:58:29;12.00;;;6.15;;
